createdAt,value
2024-02-24T00:01:12.637Z,10.40
2024-02-24T00:03:50.191Z,9.90
2024-02-24T00:08:51.154Z,9.20
2024-02-24T00:11:26.092Z,9.00
2024-02-24T00:13:54.398Z,8.80
2024-02-24T00:21:21.174Z,9.40
2024-02-24T00:33:44.947Z,8.30
2024-02-24T00:36:13.333Z,8.60
2024-02-24T00:38:43.153Z,8.90
2024-02-24T00:41:11.417Z,8.80
2024-02-24T00:43:39.719Z,8.60
2024-02-24T00:46:09.757Z,8.70
2024-02-24T00:48:43.858Z,8.60
2024-02-24T00:51:15.568Z,8.90
2024-02-24T00:53:45.238Z,9.20
2024-02-24T00:56:20.273Z,10.00
2024-02-24T00:58:51.397Z,9.30
2024-02-24T01:01:19.712Z,9.00
2024-02-24T01:03:48.120Z,8.50
2024-02-24T01:06:22.205Z,9.20
2024-02-24T01:08:52.077Z,8.90
2024-02-24T01:11:20.452Z,8.60
2024-02-24T01:13:48.757Z,8.80
2024-02-24T01:16:23.027Z,9.70
2024-02-24T01:18:54.457Z,9.70
2024-02-24T01:21:28.863Z,9.10
2024-02-24T01:23:58.433Z,9.50
2024-02-24T01:26:29.858Z,9.80
2024-02-24T01:29:07.354Z,9.30
2024-02-24T01:31:38.639Z,9.40
2024-02-24T01:39:05.615Z,8.90
2024-02-24T01:41:37.017Z,8.30
2024-02-24T01:44:05.799Z,8.80
2024-02-24T01:46:34.155Z,8.80
2024-02-24T01:49:02.968Z,8.90
2024-02-24T01:51:31.402Z,9.20
2024-02-24T01:53:59.677Z,9.30
2024-02-24T01:56:34.505Z,8.70
2024-02-24T01:59:09.401Z,9.50
2024-02-24T02:01:38.780Z,8.90
2024-02-24T02:04:09.318Z,9.50
2024-02-24T02:06:38.472Z,9.20
2024-02-24T02:09:06.791Z,9.60
2024-02-24T02:11:47.642Z,9.50
2024-02-24T02:17:08.611Z,9.40
2024-02-24T02:19:50.894Z,9.50
2024-02-24T02:22:26.925Z,9.40
2024-02-24T02:24:55.179Z,9.20
2024-02-24T02:27:26.764Z,8.70
2024-02-24T02:30:05.200Z,8.90
2024-02-24T02:32:33.722Z,9.40
2024-02-24T02:35:07.726Z,9.30
2024-02-24T02:37:37.546Z,9.30
2024-02-24T02:50:09.582Z,10.50
2024-02-24T02:52:39.660Z,9.80
2024-02-24T02:55:11.549Z,9.50
2024-02-24T02:57:48.852Z,9.80
2024-02-24T03:00:20.539Z,9.40
2024-02-24T03:05:20.959Z,9.20
2024-02-24T03:07:50.616Z,9.80
2024-02-24T03:10:19.090Z,8.40
2024-02-24T03:12:50.158Z,8.20
2024-02-24T03:15:18.847Z,8.60
2024-02-24T03:17:53.222Z,9.30
2024-02-24T03:20:21.621Z,9.60
2024-02-24T03:22:53.654Z,9.20
2024-02-24T03:25:22.078Z,8.60
2024-02-24T03:27:52.983Z,8.30
2024-02-24T03:30:21.329Z,9.50
2024-02-24T03:32:49.732Z,9.20
2024-02-24T03:35:18.080Z,9.00
2024-02-24T03:37:46.380Z,9.40
2024-02-24T03:40:19.293Z,9.10
2024-02-24T03:42:56.475Z,10.10
2024-02-24T03:45:26.906Z,8.90
2024-02-24T03:47:55.473Z,9.30
2024-02-24T04:05:33.552Z,10.00
2024-02-24T04:08:01.891Z,9.50
2024-02-24T04:10:31.542Z,9.50
2024-02-24T04:20:31.857Z,9.00
2024-02-24T04:23:00.139Z,8.50
2024-02-24T04:25:36.430Z,9.00
2024-02-24T04:38:26.886Z,9.20
2024-02-24T04:41:02.367Z,8.70
2024-02-24T04:53:37.990Z,8.90
2024-02-24T04:56:08.555Z,9.50
2024-02-24T04:58:36.856Z,9.60
2024-02-24T05:01:13.347Z,10.00
2024-02-24T05:11:20.766Z,10.60
2024-02-24T05:13:51.338Z,10.30
2024-02-24T05:16:19.609Z,10.90
2024-02-24T05:18:47.988Z,10.60
2024-02-24T05:21:22.944Z,10.60
2024-02-24T05:23:51.589Z,10.70
2024-02-24T05:26:28.226Z,10.60
2024-02-24T05:28:56.583Z,10.60
2024-02-24T05:36:27.783Z,9.70
2024-02-24T05:38:59.417Z,10.20
2024-02-24T05:41:32.433Z,9.40
2024-02-24T05:44:03.834Z,10.40
2024-02-24T05:51:37.488Z,10.30
2024-02-24T05:54:08.520Z,10.30
2024-02-24T06:11:41.157Z,10.10
2024-02-24T06:14:12.352Z,9.40
2024-02-24T06:16:51.738Z,9.60
2024-02-24T06:19:22.449Z,9.10
2024-02-24T06:21:50.822Z,9.00
2024-02-24T06:24:19.122Z,8.90
2024-02-24T06:31:52.719Z,9.30
2024-02-24T06:34:21.020Z,9.80
2024-02-24T06:36:50.043Z,9.80
2024-02-24T07:37:19.828Z,9.90
2024-02-24T07:39:48.121Z,10.30
2024-02-24T07:42:21.254Z,10.30
2024-02-24T07:44:49.589Z,9.90
2024-02-24T07:47:18.809Z,9.30
2024-02-24T08:02:20.909Z,9.10
2024-02-24T08:04:51.639Z,8.60
2024-02-24T08:07:19.974Z,8.20
2024-02-24T08:12:24.129Z,8.80
2024-02-24T08:14:55.589Z,7.80
2024-02-24T08:17:23.992Z,8.10
2024-02-24T08:19:55.092Z,8.10
2024-02-24T08:22:23.379Z,8.50
2024-02-24T08:24:54.437Z,8.20
2024-02-24T08:27:24.085Z,7.90
2024-02-24T08:29:52.426Z,7.60
2024-02-24T08:32:20.723Z,7.70
2024-02-24T08:34:51.983Z,8.00
2024-02-24T08:37:20.315Z,7.70
2024-02-24T08:39:48.606Z,8.00
2024-02-24T08:42:19.872Z,8.50
2024-02-24T08:44:49.594Z,8.40
2024-02-24T08:47:20.952Z,7.60
2024-02-24T08:49:52.304Z,8.00
2024-02-24T08:52:35.275Z,8.10
2024-02-24T08:55:10.639Z,8.70
2024-02-24T08:57:51.276Z,8.80
2024-02-24T09:00:21.909Z,8.90
2024-02-24T09:02:53.522Z,8.00
2024-02-24T09:05:22.035Z,7.40
2024-02-24T09:10:31.123Z,7.40
2024-02-24T09:20:44.303Z,9.20
2024-02-24T09:23:18.561Z,8.00
2024-02-24T09:25:46.869Z,8.70
2024-02-24T09:28:15.182Z,9.20
2024-02-24T09:33:21.612Z,8.50
2024-02-24T09:35:52.301Z,8.30
2024-02-24T09:38:39.857Z,9.40
2024-02-24T09:41:08.164Z,8.60
2024-02-24T09:43:38.321Z,8.90
2024-02-24T09:48:48.656Z,9.50
2024-02-24T09:51:19.615Z,9.40
2024-02-24T09:53:53.631Z,9.20
2024-02-24T09:56:24.759Z,7.90
2024-02-24T09:58:54.723Z,8.90
2024-02-24T10:01:26.934Z,8.90
2024-02-24T10:03:55.962Z,9.00
2024-02-24T10:06:28.189Z,8.80
2024-02-24T10:08:56.549Z,8.50
2024-02-24T10:11:25.406Z,8.80
2024-02-24T10:14:07.591Z,8.30
2024-02-24T10:16:40.831Z,8.40
2024-02-24T10:19:09.586Z,9.30
2024-02-24T10:21:40.473Z,9.40
2024-02-24T10:24:12.328Z,9.40
2024-02-24T10:26:41.080Z,8.70
2024-02-24T10:29:09.349Z,8.40
2024-02-24T10:34:15.912Z,8.90
2024-02-24T10:36:51.732Z,9.20
2024-02-24T10:39:20.691Z,8.90
2024-02-24T10:42:06.046Z,8.70
2024-02-24T10:44:44.120Z,8.40
2024-02-24T10:47:15.320Z,8.70
2024-02-24T10:49:45.049Z,9.20
2024-02-24T10:52:18.623Z,8.90
2024-02-24T10:54:57.149Z,9.30
2024-02-24T10:57:33.048Z,9.20
2024-02-24T11:00:32.816Z,8.80
2024-02-24T11:03:02.629Z,9.30
2024-02-24T11:05:37.764Z,9.30
2024-02-24T11:08:38.549Z,9.50
2024-02-24T11:11:12.253Z,9.10
2024-02-24T11:13:59.453Z,9.30
2024-02-24T11:16:37.031Z,9.20
2024-02-24T11:19:11.763Z,9.20
2024-02-24T11:22:04.865Z,9.00
2024-02-24T11:24:40.371Z,8.70
2024-02-24T11:27:12.616Z,8.70
2024-02-24T11:29:50.066Z,8.90
2024-02-24T11:32:18.527Z,8.80
2024-02-24T11:34:47.369Z,9.40
2024-02-24T11:37:20.457Z,9.10
2024-02-24T11:39:56.249Z,8.90
2024-02-24T11:42:25.394Z,8.50
2024-02-24T11:45:04.893Z,8.70
2024-02-24T11:47:38.444Z,9.80
2024-02-24T11:50:08.324Z,9.70
2024-02-24T11:52:38.561Z,9.20
2024-02-24T11:55:10.655Z,9.30
2024-02-24T11:57:38.942Z,9.00
2024-02-24T12:00:12.344Z,9.30
2024-02-24T12:05:15.637Z,8.90
2024-02-24T12:07:46.204Z,8.80
2024-02-24T12:17:51.114Z,8.60
2024-02-24T12:20:26.314Z,9.40
2024-02-24T12:23:06.756Z,9.10
2024-02-24T12:25:41.196Z,8.60
2024-02-24T12:28:09.493Z,9.40
2024-02-24T12:30:41.509Z,9.60
2024-02-24T12:33:17.731Z,9.10
2024-02-24T12:35:49.730Z,9.00
2024-02-24T12:38:22.730Z,8.70
2024-02-24T12:40:53.792Z,8.50
2024-02-24T12:43:22.076Z,8.50
2024-02-24T12:45:50.963Z,8.80
2024-02-24T12:48:23.629Z,9.00
2024-02-24T13:08:22.877Z,9.10
2024-02-24T13:28:30.747Z,10.00
2024-02-24T13:31:10.936Z,9.60
2024-02-24T13:33:39.797Z,9.80
2024-02-24T13:46:20.354Z,9.60
2024-02-24T13:49:03.143Z,9.20
2024-02-24T13:51:32.660Z,9.10
2024-02-24T14:06:46.017Z,8.80
2024-02-24T14:09:21.967Z,9.10
2024-02-24T14:11:54.135Z,10.30
2024-02-24T14:14:22.793Z,9.90
2024-02-24T14:19:33.621Z,10.20
2024-02-24T14:22:02.451Z,11.10
2024-02-24T14:24:35.391Z,11.60
2024-02-24T14:27:03.731Z,11.30
2024-02-24T14:29:32.035Z,11.60
2024-02-24T15:10:18.473Z,10.40
2024-02-24T15:25:23.382Z,10.00
2024-02-24T15:27:53.337Z,9.60
2024-02-24T15:30:23.136Z,9.70
2024-02-24T15:32:56.436Z,9.50
2024-02-24T15:35:32.138Z,9.40
2024-02-24T15:38:06.958Z,9.80
2024-02-24T15:40:40.989Z,9.90
2024-02-24T15:43:12.066Z,9.80
2024-02-24T16:11:14.862Z,9.80
2024-02-24T16:13:44.508Z,9.70
2024-02-24T16:16:15.804Z,8.80
2024-02-24T16:18:44.646Z,9.50
2024-02-24T16:23:47.960Z,9.40
2024-02-24T16:26:21.839Z,9.50
2024-02-24T16:28:55.661Z,9.50
2024-02-24T16:31:23.959Z,9.00
2024-02-24T16:33:53.740Z,9.80
2024-02-24T16:36:22.450Z,9.10
2024-02-24T16:39:00.832Z,9.40
2024-02-24T16:41:32.135Z,9.40
2024-02-24T16:44:07.861Z,9.90
2024-02-24T16:46:44.203Z,10.40
2024-02-24T18:30:19.769Z,10.30
2024-02-24T18:32:57.116Z,10.10
2024-02-24T18:35:25.514Z,10.50
2024-02-24T18:37:53.788Z,10.10
2024-02-24T18:40:22.062Z,9.90
2024-02-24T18:42:53.382Z,10.60
2024-02-24T18:45:23.049Z,10.30
2024-02-24T18:47:54.556Z,9.80
2024-02-24T18:50:22.949Z,10.10
2024-02-24T19:07:50.976Z,9.90
2024-02-24T19:10:22.918Z,9.80
2024-02-24T19:12:52.321Z,9.50
2024-02-24T19:15:22.296Z,9.60
2024-02-24T19:25:17.778Z,9.20
2024-02-24T19:27:49.037Z,9.20
2024-02-24T19:30:17.546Z,9.00
2024-02-24T19:32:47.367Z,9.50
2024-02-24T19:35:29.109Z,9.50
2024-02-24T19:38:13.463Z,8.80
2024-02-24T19:40:43.074Z,8.50
2024-02-24T19:48:13.600Z,8.10
2024-02-24T19:50:46.243Z,8.90
2024-02-24T19:53:17.671Z,8.30
2024-02-24T19:55:49.091Z,8.20
2024-02-24T19:58:28.856Z,8.30
2024-02-24T20:01:12.626Z,8.80
2024-02-24T20:03:45.136Z,8.60
2024-02-24T20:06:13.559Z,9.00
2024-02-24T20:08:42.044Z,8.80
2024-02-24T20:11:10.806Z,8.80
2024-02-24T20:13:41.906Z,8.70
2024-02-24T20:16:19.313Z,8.50
2024-02-24T20:18:53.673Z,7.80
2024-02-24T20:21:22.115Z,7.90
2024-02-24T20:23:50.447Z,7.50
2024-02-24T20:26:18.710Z,8.70
2024-02-24T20:28:47.034Z,8.20
2024-02-24T20:31:15.582Z,7.60
2024-02-24T20:33:53.259Z,7.70
2024-02-24T20:36:32.192Z,8.40
2024-02-24T20:41:41.425Z,7.90
2024-02-24T20:44:20.090Z,8.10
2024-02-24T20:46:48.741Z,8.00
2024-02-24T20:49:23.016Z,8.40
2024-02-24T20:51:58.425Z,8.60
2024-02-24T20:54:36.037Z,8.60
2024-02-24T20:57:04.939Z,8.40
2024-02-24T20:59:42.478Z,8.00
2024-02-24T21:02:11.308Z,8.70
2024-02-24T21:04:40.033Z,8.00
2024-02-24T21:07:11.793Z,8.40
2024-02-24T21:09:40.146Z,8.00
2024-02-24T21:12:13.113Z,8.20
2024-02-24T21:22:20.434Z,8.70
2024-02-24T21:27:20.343Z,7.90
2024-02-24T21:29:51.646Z,8.40
2024-02-24T21:32:22.972Z,8.40
2024-02-24T21:34:54.297Z,8.70
2024-02-24T21:37:26.596Z,8.50
2024-02-24T21:39:58.198Z,8.90
2024-02-24T21:47:42.420Z,8.20
2024-02-24T21:50:12.224Z,7.80
2024-02-24T21:52:44.861Z,8.50
2024-02-24T21:55:16.366Z,8.00
2024-02-24T21:57:47.489Z,8.20
2024-02-24T22:00:19.762Z,8.70
2024-02-24T22:02:48.239Z,8.20
2024-02-24T22:05:19.902Z,7.60
2024-02-24T22:07:51.992Z,8.20
2024-02-24T22:23:10.643Z,7.50
2024-02-24T22:28:08.053Z,7.30
2024-02-24T22:30:36.651Z,7.90
2024-02-24T22:33:05.571Z,7.50
2024-02-24T22:35:34.027Z,8.40
2024-02-24T22:38:03.288Z,8.40
2024-02-24T22:40:40.413Z,8.60
2024-02-24T22:43:08.698Z,7.70
2024-02-24T22:48:06.878Z,7.70
2024-02-24T22:50:44.367Z,7.60
2024-02-24T22:55:43.421Z,7.20
2024-02-24T23:08:15.734Z,7.40
2024-02-24T23:10:47.855Z,7.20
2024-02-24T23:13:18.986Z,7.30
2024-02-24T23:15:53.451Z,7.50
2024-02-24T23:20:56.522Z,8.10
2024-02-24T23:23:24.961Z,8.20
2024-02-24T23:26:01.414Z,7.40
2024-02-24T23:28:32.508Z,8.00
2024-02-24T23:31:03.797Z,7.30
2024-02-24T23:33:33.649Z,7.60
2024-02-24T23:36:05.519Z,7.70
2024-02-24T23:38:33.995Z,8.00
2024-02-24T23:41:03.730Z,7.00
2024-02-24T23:43:34.764Z,7.70
2024-02-24T23:46:03.076Z,7.70
2024-02-24T23:48:44.893Z,8.10
2024-02-24T23:51:21.453Z,7.40
2024-02-24T23:53:52.916Z,7.20
2024-02-24T23:56:26.205Z,7.00
2024-02-24T23:58:54.802Z,7.00
